sensor_id;sensor_type;location;lat;lon;timestamp;P1;durP1;ratioP1;P2;durP2;ratioP2
4933;SDS011;2482;49.154;8.254;2023-06-14T00:02:15;7.30;;;4.80;;
4933;SDS011;2482;49.154;8.254;2023-06-14T00:04:42;8.00;;;4.60;;
4933;SDS011;2482;49.154;8.254;2023-06-14T00:07:09;6.30;;;4.50;;
4933;SDS011;2482;49.154;8.254;2023-06-14T00:09:40;8.73;;;4.67;;
4933;SDS011;2482;49.154;8.254;2023-06-14T00:12:07;6.07;;;5.37;;
4933;SDS011;2482;49.154;8.254;2023-06-14T00:14:35;8.83;;;5.23;;
4933;SDS011;2482;49.154;8.254;2023-06-14T00:17:02;6.33;;;5.20;;
4933;SDS011;2482;49.154;8.254;2023-06-14T00:19:29;8.10;;;5.20;;
4933;SDS011;2482;49.154;8.254;2023-06-14T00:21:59;5.70;;;4.97;;
4933;SDS011;2482;49.154;8.254;2023-06-14T00:24:26;7.23;;;4.90;;
4933;SDS011;2482;49.154;8.254;2023-06-14T00:26:53;6.70;;;4.80;;
4933;SDS011;2482;49.154;8.254;2023-06-14T00:29:21;7.30;;;4.63;;
4933;SDS011;2482;49.154;8.254;2023-06-14T00:31:49;5.53;;;4.97;;
4933;SDS011;2482;49.154;8.254;2023-06-14T00:34:16;8.47;;;5.20;;
4933;SDS011;2482;49.154;8.254;2023-06-14T00:36:43;5.73;;;4.73;;
4933;SDS011;2482;49.154;8.254;2023-06-14T00:39:10;10.50;;;5.30;;
4933;SDS011;2482;49.154;8.254;2023-06-14T00:41:39;12.27;;;4.70;;
4933;SDS011;2482;49.154;8.254;2023-06-14T00:44:06;6.57;;;4.63;;
4933;SDS011;2482;49.154;8.254;2023-06-14T00:46:33;9.10;;;4.60;;
4933;SDS011;2482;49.154;8.254;2023-06-14T00:49:00;7.23;;;4.83;;
4933;SDS011;2482;49.154;8.254;2023-06-14T00:51:28;6.00;;;5.10;;
4933;SDS011;2482;49.154;8.254;2023-06-14T00:53:55;6.60;;;4.60;;
4933;SDS011;2482;49.154;8.254;2023-06-14T00:56:22;5.40;;;4.30;;
4933;SDS011;2482;49.154;8.254;2023-06-14T00:58:49;10.00;;;4.77;;
4933;SDS011;2482;49.154;8.254;2023-06-14T01:01:17;5.40;;;4.57;;
4933;SDS011;2482;49.154;8.254;2023-06-14T01:03:44;6.57;;;4.33;;
4933;SDS011;2482;49.154;8.254;2023-06-14T01:06:18;5.63;;;4.73;;
4933;SDS011;2482;49.154;8.254;2023-06-14T01:09:18;4.83;;;4.13;;
4933;SDS011;2482;49.154;8.254;2023-06-14T01:12:07;6.47;;;4.37;;
4933;SDS011;2482;49.154;8.254;2023-06-14T01:15:00;4.70;;;4.30;;
4933;SDS011;2482;49.154;8.254;2023-06-14T01:17:29;14.53;;;5.40;;
4933;SDS011;2482;49.154;8.254;2023-06-14T01:20:00;6.20;;;3.83;;
4933;SDS011;2482;49.154;8.254;2023-06-14T01:22:29;5.60;;;4.57;;
4933;SDS011;2482;49.154;8.254;2023-06-14T01:24:56;10.60;;;5.20;;
4933;SDS011;2482;49.154;8.254;2023-06-14T01:27:24;6.60;;;4.57;;
4933;SDS011;2482;49.154;8.254;2023-06-14T01:29:55;5.80;;;4.70;;
4933;SDS011;2482;49.154;8.254;2023-06-14T01:32:23;8.07;;;4.77;;
4933;SDS011;2482;49.154;8.254;2023-06-14T01:34:53;7.90;;;5.47;;
4933;SDS011;2482;49.154;8.254;2023-06-14T01:37:20;7.73;;;5.10;;
4933;SDS011;2482;49.154;8.254;2023-06-14T01:39:48;8.03;;;5.10;;
4933;SDS011;2482;49.154;8.254;2023-06-14T01:42:16;7.90;;;5.00;;
4933;SDS011;2482;49.154;8.254;2023-06-14T01:44:45;6.30;;;5.27;;
4933;SDS011;2482;49.154;8.254;2023-06-14T01:47:14;6.17;;;5.43;;
4933;SDS011;2482;49.154;8.254;2023-06-14T01:49:41;7.07;;;5.60;;
4933;SDS011;2482;49.154;8.254;2023-06-14T01:52:08;8.50;;;6.13;;
4933;SDS011;2482;49.154;8.254;2023-06-14T01:54:36;6.80;;;5.13;;
4933;SDS011;2482;49.154;8.254;2023-06-14T01:57:08;10.53;;;5.43;;
4933;SDS011;2482;49.154;8.254;2023-06-14T01:59:37;6.53;;;5.83;;
4933;SDS011;2482;49.154;8.254;2023-06-14T02:02:04;7.10;;;5.47;;
4933;SDS011;2482;49.154;8.254;2023-06-14T02:04:31;13.80;;;5.43;;
4933;SDS011;2482;49.154;8.254;2023-06-14T02:06:58;6.60;;;5.30;;
4933;SDS011;2482;49.154;8.254;2023-06-14T02:09:25;7.37;;;5.30;;
4933;SDS011;2482;49.154;8.254;2023-06-14T02:11:52;10.40;;;5.90;;
4933;SDS011;2482;49.154;8.254;2023-06-14T02:14:20;5.97;;;5.37;;
4933;SDS011;2482;49.154;8.254;2023-06-14T02:16:47;9.27;;;5.00;;
4933;SDS011;2482;49.154;8.254;2023-06-14T02:19:16;6.67;;;5.00;;
4933;SDS011;2482;49.154;8.254;2023-06-14T02:21:43;6.17;;;5.27;;
4933;SDS011;2482;49.154;8.254;2023-06-14T02:24:11;8.33;;;5.73;;
4933;SDS011;2482;49.154;8.254;2023-06-14T02:26:38;6.93;;;5.57;;
4933;SDS011;2482;49.154;8.254;2023-06-14T02:29:07;5.90;;;5.30;;
4933;SDS011;2482;49.154;8.254;2023-06-14T02:31:37;13.43;;;5.23;;
4933;SDS011;2482;49.154;8.254;2023-06-14T02:34:04;6.80;;;5.53;;
4933;SDS011;2482;49.154;8.254;2023-06-14T02:36:31;9.97;;;5.17;;
4933;SDS011;2482;49.154;8.254;2023-06-14T02:38:58;6.40;;;5.30;;
4933;SDS011;2482;49.154;8.254;2023-06-14T02:41:26;6.00;;;5.03;;
4933;SDS011;2482;49.154;8.254;2023-06-14T02:43:53;9.10;;;5.47;;
4933;SDS011;2482;49.154;8.254;2023-06-14T02:46:20;6.30;;;5.70;;
4933;SDS011;2482;49.154;8.254;2023-06-14T02:48:47;7.40;;;5.53;;
4933;SDS011;2482;49.154;8.254;2023-06-14T02:51:14;7.37;;;5.43;;
4933;SDS011;2482;49.154;8.254;2023-06-14T02:53:41;9.00;;;6.43;;
4933;SDS011;2482;49.154;8.254;2023-06-14T02:56:08;7.43;;;5.00;;
4933;SDS011;2482;49.154;8.254;2023-06-14T02:58:36;8.50;;;5.43;;
4933;SDS011;2482;49.154;8.254;2023-06-14T03:01:04;7.73;;;5.70;;
4933;SDS011;2482;49.154;8.254;2023-06-14T03:03:34;9.20;;;5.60;;
4933;SDS011;2482;49.154;8.254;2023-06-14T03:06:01;6.90;;;5.40;;
4933;SDS011;2482;49.154;8.254;2023-06-14T03:08:30;9.07;;;5.53;;
4933;SDS011;2482;49.154;8.254;2023-06-14T03:11:04;17.77;;;5.70;;
4933;SDS011;2482;49.154;8.254;2023-06-14T03:13:32;8.70;;;5.03;;
4933;SDS011;2482;49.154;8.254;2023-06-14T03:15:59;7.57;;;5.50;;
4933;SDS011;2482;49.154;8.254;2023-06-14T03:18:31;6.43;;;5.03;;
4933;SDS011;2482;49.154;8.254;2023-06-14T03:21:02;8.33;;;5.27;;
4933;SDS011;2482;49.154;8.254;2023-06-14T03:23:29;5.30;;;4.80;;
4933;SDS011;2482;49.154;8.254;2023-06-14T03:25:57;7.23;;;5.83;;
4933;SDS011;2482;49.154;8.254;2023-06-14T03:28:24;10.17;;;5.50;;
4933;SDS011;2482;49.154;8.254;2023-06-14T03:30:52;10.20;;;5.53;;
4933;SDS011;2482;49.154;8.254;2023-06-14T03:33:19;6.27;;;5.13;;
4933;SDS011;2482;49.154;8.254;2023-06-14T03:35:47;6.90;;;6.10;;
4933;SDS011;2482;49.154;8.254;2023-06-14T03:38:14;6.03;;;4.77;;
4933;SDS011;2482;49.154;8.254;2023-06-14T03:40:41;7.70;;;5.20;;
4933;SDS011;2482;49.154;8.254;2023-06-14T03:43:08;7.67;;;5.47;;
4933;SDS011;2482;49.154;8.254;2023-06-14T03:45:35;6.73;;;5.37;;
4933;SDS011;2482;49.154;8.254;2023-06-14T03:48:02;6.40;;;5.47;;
4933;SDS011;2482;49.154;8.254;2023-06-14T03:50:33;7.90;;;5.60;;
4933;SDS011;2482;49.154;8.254;2023-06-14T03:53:00;9.20;;;5.90;;
4933;SDS011;2482;49.154;8.254;2023-06-14T03:55:27;7.00;;;5.30;;
4933;SDS011;2482;49.154;8.254;2023-06-14T03:58:00;6.20;;;5.40;;
4933;SDS011;2482;49.154;8.254;2023-06-14T04:00:27;6.47;;;5.57;;
4933;SDS011;2482;49.154;8.254;2023-06-14T04:02:54;6.90;;;5.67;;
4933;SDS011;2482;49.154;8.254;2023-06-14T04:05:21;6.23;;;5.20;;
4933;SDS011;2482;49.154;8.254;2023-06-14T04:07:52;6.53;;;5.93;;
4933;SDS011;2482;49.154;8.254;2023-06-14T04:10:22;5.70;;;5.13;;
4933;SDS011;2482;49.154;8.254;2023-06-14T04:12:49;8.97;;;5.57;;
4933;SDS011;2482;49.154;8.254;2023-06-14T04:15:18;10.10;;;5.40;;
4933;SDS011;2482;49.154;8.254;2023-06-14T04:17:47;7.63;;;5.60;;
4933;SDS011;2482;49.154;8.254;2023-06-14T04:20:15;7.70;;;5.60;;
4933;SDS011;2482;49.154;8.254;2023-06-14T04:22:43;10.47;;;5.33;;
4933;SDS011;2482;49.154;8.254;2023-06-14T04:25:10;7.70;;;5.80;;
4933;SDS011;2482;49.154;8.254;2023-06-14T04:27:38;10.43;;;5.80;;
4933;SDS011;2482;49.154;8.254;2023-06-14T04:30:06;12.33;;;6.50;;
4933;SDS011;2482;49.154;8.254;2023-06-14T04:32:33;10.13;;;5.63;;
4933;SDS011;2482;49.154;8.254;2023-06-14T04:35:08;7.00;;;5.50;;
4933;SDS011;2482;49.154;8.254;2023-06-14T04:37:35;5.60;;;5.03;;
4933;SDS011;2482;49.154;8.254;2023-06-14T04:40:06;7.83;;;5.33;;
4933;SDS011;2482;49.154;8.254;2023-06-14T04:42:37;8.93;;;4.90;;
4933;SDS011;2482;49.154;8.254;2023-06-14T04:45:07;9.73;;;6.23;;
4933;SDS011;2482;49.154;8.254;2023-06-14T04:47:35;5.00;;;4.53;;
4933;SDS011;2482;49.154;8.254;2023-06-14T04:50:04;10.63;;;5.87;;
4933;SDS011;2482;49.154;8.254;2023-06-14T04:52:31;9.30;;;5.57;;
4933;SDS011;2482;49.154;8.254;2023-06-14T04:54:59;10.80;;;6.00;;
4933;SDS011;2482;49.154;8.254;2023-06-14T04:57:26;7.47;;;5.20;;
4933;SDS011;2482;49.154;8.254;2023-06-14T04:59:53;9.03;;;6.27;;
4933;SDS011;2482;49.154;8.254;2023-06-14T05:02:24;7.80;;;5.43;;
4933;SDS011;2482;49.154;8.254;2023-06-14T05:04:52;6.00;;;5.27;;
4933;SDS011;2482;49.154;8.254;2023-06-14T05:07:20;12.20;;;6.80;;
4933;SDS011;2482;49.154;8.254;2023-06-14T05:09:50;7.87;;;5.73;;
4933;SDS011;2482;49.154;8.254;2023-06-14T05:12:17;15.20;;;5.97;;
4933;SDS011;2482;49.154;8.254;2023-06-14T05:14:45;9.47;;;5.40;;
4933;SDS011;2482;49.154;8.254;2023-06-14T05:17:12;7.53;;;5.37;;
4933;SDS011;2482;49.154;8.254;2023-06-14T05:19:39;7.63;;;5.83;;
4933;SDS011;2482;49.154;8.254;2023-06-14T05:22:07;9.80;;;4.60;;
4933;SDS011;2482;49.154;8.254;2023-06-14T05:24:34;10.67;;;5.60;;
4933;SDS011;2482;49.154;8.254;2023-06-14T05:27:01;7.57;;;4.90;;
4933;SDS011;2482;49.154;8.254;2023-06-14T05:29:28;10.47;;;5.30;;
4933;SDS011;2482;49.154;8.254;2023-06-14T05:31:56;11.17;;;4.83;;
4933;SDS011;2482;49.154;8.254;2023-06-14T05:34:23;8.53;;;5.10;;
4933;SDS011;2482;49.154;8.254;2023-06-14T05:36:50;5.10;;;4.60;;
4933;SDS011;2482;49.154;8.254;2023-06-14T05:39:17;7.57;;;5.30;;
4933;SDS011;2482;49.154;8.254;2023-06-14T05:41:44;9.67;;;5.33;;
4933;SDS011;2482;49.154;8.254;2023-06-14T05:44:13;7.80;;;5.23;;
4933;SDS011;2482;49.154;8.254;2023-06-14T05:46:41;8.53;;;5.60;;
4933;SDS011;2482;49.154;8.254;2023-06-14T05:49:08;8.27;;;4.97;;
4933;SDS011;2482;49.154;8.254;2023-06-14T05:51:35;11.13;;;5.33;;
4933;SDS011;2482;49.154;8.254;2023-06-14T05:54:02;7.23;;;4.37;;
4933;SDS011;2482;49.154;8.254;2023-06-14T05:56:29;6.93;;;5.47;;
4933;SDS011;2482;49.154;8.254;2023-06-14T05:58:56;7.87;;;4.83;;
4933;SDS011;2482;49.154;8.254;2023-06-14T06:01:23;5.87;;;5.00;;
4933;SDS011;2482;49.154;8.254;2023-06-14T06:03:51;9.20;;;5.27;;
4933;SDS011;2482;49.154;8.254;2023-06-14T06:06:18;7.07;;;4.70;;
4933;SDS011;2482;49.154;8.254;2023-06-14T06:08:45;9.53;;;4.80;;
4933;SDS011;2482;49.154;8.254;2023-06-14T06:11:12;6.40;;;5.10;;
4933;SDS011;2482;49.154;8.254;2023-06-14T06:13:39;10.23;;;4.43;;
4933;SDS011;2482;49.154;8.254;2023-06-14T06:16:07;6.10;;;5.40;;
4933;SDS011;2482;49.154;8.254;2023-06-14T06:18:34;7.90;;;4.73;;
4933;SDS011;2482;49.154;8.254;2023-06-14T06:21:03;10.03;;;5.10;;
4933;SDS011;2482;49.154;8.254;2023-06-14T06:23:30;9.63;;;4.60;;
4933;SDS011;2482;49.154;8.254;2023-06-14T06:25:58;7.50;;;4.13;;
4933;SDS011;2482;49.154;8.254;2023-06-14T06:28:25;8.80;;;4.77;;
4933;SDS011;2482;49.154;8.254;2023-06-14T06:30:51;9.07;;;5.23;;
4933;SDS011;2482;49.154;8.254;2023-06-14T06:33:20;7.73;;;4.40;;
4933;SDS011;2482;49.154;8.254;2023-06-14T06:35:47;5.77;;;4.90;;
4933;SDS011;2482;49.154;8.254;2023-06-14T06:38:13;11.30;;;5.10;;
4933;SDS011;2482;49.154;8.254;2023-06-14T06:40:40;9.13;;;5.30;;
4933;SDS011;2482;49.154;8.254;2023-06-14T06:43:07;7.43;;;5.23;;
4933;SDS011;2482;49.154;8.254;2023-06-14T06:45:35;6.30;;;4.73;;
4933;SDS011;2482;49.154;8.254;2023-06-14T06:48:02;10.97;;;5.40;;
4933;SDS011;2482;49.154;8.254;2023-06-14T06:50:30;6.90;;;4.63;;
4933;SDS011;2482;49.154;8.254;2023-06-14T06:52:57;5.53;;;4.70;;
4933;SDS011;2482;49.154;8.254;2023-06-14T06:55:24;5.60;;;4.60;;
4933;SDS011;2482;49.154;8.254;2023-06-14T06:57:51;14.53;;;5.23;;
4933;SDS011;2482;49.154;8.254;2023-06-14T07:00:20;7.03;;;4.57;;
4933;SDS011;2482;49.154;8.254;2023-06-14T07:02:47;8.63;;;4.93;;
4933;SDS011;2482;49.154;8.254;2023-06-14T07:05:15;9.17;;;4.67;;
4933;SDS011;2482;49.154;8.254;2023-06-14T07:07:42;6.13;;;4.77;;
4933;SDS011;2482;49.154;8.254;2023-06-14T07:10:09;5.47;;;4.30;;
4933;SDS011;2482;49.154;8.254;2023-06-14T07:12:36;8.87;;;5.13;;
4933;SDS011;2482;49.154;8.254;2023-06-14T07:15:06;10.63;;;4.80;;
4933;SDS011;2482;49.154;8.254;2023-06-14T07:17:35;7.13;;;4.40;;
4933;SDS011;2482;49.154;8.254;2023-06-14T07:20:03;7.97;;;4.90;;
4933;SDS011;2482;49.154;8.254;2023-06-14T07:22:40;8.43;;;4.23;;
4933;SDS011;2482;49.154;8.254;2023-06-14T07:25:09;9.73;;;4.30;;
4933;SDS011;2482;49.154;8.254;2023-06-14T07:27:42;6.90;;;4.77;;
4933;SDS011;2482;49.154;8.254;2023-06-14T07:30:09;8.63;;;5.57;;
4933;SDS011;2482;49.154;8.254;2023-06-14T07:32:37;15.23;;;4.60;;
4933;SDS011;2482;49.154;8.254;2023-06-14T07:35:05;6.73;;;4.23;;
4933;SDS011;2482;49.154;8.254;2023-06-14T07:37:33;11.70;;;4.87;;
4933;SDS011;2482;49.154;8.254;2023-06-14T07:40:00;7.43;;;5.53;;
4933;SDS011;2482;49.154;8.254;2023-06-14T07:42:29;10.90;;;5.20;;
4933;SDS011;2482;49.154;8.254;2023-06-14T07:44:56;8.60;;;4.93;;
4933;SDS011;2482;49.154;8.254;2023-06-14T07:47:23;7.20;;;5.47;;
4933;SDS011;2482;49.154;8.254;2023-06-14T07:49:50;5.37;;;4.83;;
4933;SDS011;2482;49.154;8.254;2023-06-14T07:52:17;8.77;;;4.70;;
4933;SDS011;2482;49.154;8.254;2023-06-14T07:54:44;6.20;;;5.03;;
4933;SDS011;2482;49.154;8.254;2023-06-14T07:57:11;12.63;;;4.63;;
4933;SDS011;2482;49.154;8.254;2023-06-14T07:59:38;7.40;;;4.73;;
4933;SDS011;2482;49.154;8.254;2023-06-14T08:02:05;9.03;;;4.60;;
4933;SDS011;2482;49.154;8.254;2023-06-14T08:04:33;11.07;;;5.93;;
4933;SDS011;2482;49.154;8.254;2023-06-14T08:07:00;9.67;;;5.23;;
4933;SDS011;2482;49.154;8.254;2023-06-14T08:09:27;11.50;;;4.60;;
4933;SDS011;2482;49.154;8.254;2023-06-14T08:11:55;5.23;;;4.40;;
4933;SDS011;2482;49.154;8.254;2023-06-14T08:14:22;5.23;;;4.73;;
4933;SDS011;2482;49.154;8.254;2023-06-14T08:16:49;7.00;;;5.00;;
4933;SDS011;2482;49.154;8.254;2023-06-14T08:19:16;7.37;;;4.87;;
4933;SDS011;2482;49.154;8.254;2023-06-14T08:21:44;5.90;;;4.77;;
4933;SDS011;2482;49.154;8.254;2023-06-14T08:24:12;5.43;;;4.90;;
4933;SDS011;2482;49.154;8.254;2023-06-14T08:26:40;9.93;;;4.40;;
4933;SDS011;2482;49.154;8.254;2023-06-14T08:29:07;6.80;;;4.80;;
4933;SDS011;2482;49.154;8.254;2023-06-14T08:31:34;6.40;;;4.10;;
4933;SDS011;2482;49.154;8.254;2023-06-14T08:34:01;7.67;;;4.57;;
4933;SDS011;2482;49.154;8.254;2023-06-14T08:36:32;6.47;;;4.20;;
4933;SDS011;2482;49.154;8.254;2023-06-14T08:38:59;5.83;;;4.70;;
4933;SDS011;2482;49.154;8.254;2023-06-14T08:41:26;6.00;;;4.83;;
4933;SDS011;2482;49.154;8.254;2023-06-14T08:43:56;11.03;;;5.20;;
4933;SDS011;2482;49.154;8.254;2023-06-14T08:46:25;12.33;;;4.20;;
4933;SDS011;2482;49.154;8.254;2023-06-14T08:48:54;11.17;;;4.83;;
4933;SDS011;2482;49.154;8.254;2023-06-14T08:51:23;7.07;;;4.87;;
4933;SDS011;2482;49.154;8.254;2023-06-14T08:53:53;5.60;;;4.00;;
4933;SDS011;2482;49.154;8.254;2023-06-14T08:56:25;6.63;;;4.57;;
4933;SDS011;2482;49.154;8.254;2023-06-14T08:58:54;8.60;;;4.60;;
4933;SDS011;2482;49.154;8.254;2023-06-14T09:01:23;8.80;;;4.67;;
4933;SDS011;2482;49.154;8.254;2023-06-14T09:03:50;6.70;;;4.20;;
4933;SDS011;2482;49.154;8.254;2023-06-14T09:06:18;6.63;;;4.20;;
4933;SDS011;2482;49.154;8.254;2023-06-14T09:08:49;6.37;;;3.87;;
4933;SDS011;2482;49.154;8.254;2023-06-14T09:11:17;5.67;;;4.47;;
4933;SDS011;2482;49.154;8.254;2023-06-14T09:13:46;8.53;;;4.53;;
4933;SDS011;2482;49.154;8.254;2023-06-14T09:16:13;6.53;;;4.40;;
4933;SDS011;2482;49.154;8.254;2023-06-14T09:18:45;8.50;;;4.90;;
4933;SDS011;2482;49.154;8.254;2023-06-14T09:21:16;4.20;;;3.80;;
4933;SDS011;2482;49.154;8.254;2023-06-14T09:23:44;7.30;;;4.37;;
4933;SDS011;2482;49.154;8.254;2023-06-14T09:26:17;9.93;;;4.40;;
4933;SDS011;2482;49.154;8.254;2023-06-14T09:28:49;6.60;;;4.10;;
4933;SDS011;2482;49.154;8.254;2023-06-14T09:31:21;9.07;;;4.40;;
4933;SDS011;2482;49.154;8.254;2023-06-14T09:33:49;9.63;;;4.53;;
4933;SDS011;2482;49.154;8.254;2023-06-14T09:36:17;6.17;;;4.60;;
4933;SDS011;2482;49.154;8.254;2023-06-14T09:38:55;4.47;;;4.03;;
4933;SDS011;2482;49.154;8.254;2023-06-14T09:41:36;5.90;;;4.57;;
4933;SDS011;2482;49.154;8.254;2023-06-14T09:44:09;6.37;;;4.03;;
4933;SDS011;2482;49.154;8.254;2023-06-14T09:46:46;9.73;;;4.30;;
4933;SDS011;2482;49.154;8.254;2023-06-14T09:49:14;4.80;;;4.27;;
4933;SDS011;2482;49.154;8.254;2023-06-14T09:51:43;6.87;;;4.27;;
4933;SDS011;2482;49.154;8.254;2023-06-14T09:54:14;9.20;;;4.00;;
4933;SDS011;2482;49.154;8.254;2023-06-14T09:56:47;9.30;;;4.03;;
4933;SDS011;2482;49.154;8.254;2023-06-14T09:59:19;6.57;;;3.53;;
4933;SDS011;2482;49.154;8.254;2023-06-14T10:01:57;5.10;;;3.67;;
4933;SDS011;2482;49.154;8.254;2023-06-14T10:04:26;6.73;;;4.30;;
4933;SDS011;2482;49.154;8.254;2023-06-14T10:06:56;6.50;;;3.47;;
4933;SDS011;2482;49.154;8.254;2023-06-14T10:09:25;8.33;;;3.70;;
4933;SDS011;2482;49.154;8.254;2023-06-14T10:11:55;3.70;;;3.40;;
4933;SDS011;2482;49.154;8.254;2023-06-14T10:14:22;5.70;;;3.70;;
4933;SDS011;2482;49.154;8.254;2023-06-14T10:16:56;9.03;;;4.40;;
4933;SDS011;2482;49.154;8.254;2023-06-14T10:19:43;7.43;;;3.80;;
4933;SDS011;2482;49.154;8.254;2023-06-14T10:22:29;7.50;;;3.80;;
4933;SDS011;2482;49.154;8.254;2023-06-14T10:25:06;7.03;;;3.97;;
4933;SDS011;2482;49.154;8.254;2023-06-14T10:27:39;8.27;;;4.00;;
4933;SDS011;2482;49.154;8.254;2023-06-14T10:30:14;7.00;;;4.00;;
4933;SDS011;2482;49.154;8.254;2023-06-14T10:33:04;5.83;;;4.00;;
4933;SDS011;2482;49.154;8.254;2023-06-14T10:35:34;9.57;;;3.70;;
4933;SDS011;2482;49.154;8.254;2023-06-14T10:38:08;5.50;;;3.27;;
4933;SDS011;2482;49.154;8.254;2023-06-14T10:40:36;7.43;;;3.30;;
4933;SDS011;2482;49.154;8.254;2023-06-14T10:43:22;7.97;;;3.50;;
4933;SDS011;2482;49.154;8.254;2023-06-14T10:48:49;3.80;;;3.50;;
4933;SDS011;2482;49.154;8.254;2023-06-14T10:51:24;5.73;;;2.73;;
4933;SDS011;2482;49.154;8.254;2023-06-14T10:53:58;4.10;;;3.53;;
4933;SDS011;2482;49.154;8.254;2023-06-14T10:56:29;9.80;;;3.00;;
4933;SDS011;2482;49.154;8.254;2023-06-14T10:58:57;5.90;;;3.50;;
4933;SDS011;2482;49.154;8.254;2023-06-14T11:01:37;4.37;;;3.07;;
4933;SDS011;2482;49.154;8.254;2023-06-14T11:04:11;5.37;;;3.20;;
4933;SDS011;2482;49.154;8.254;2023-06-14T11:12:23;3.33;;;2.73;;
4933;SDS011;2482;49.154;8.254;2023-06-14T11:14:54;5.47;;;2.70;;
4933;SDS011;2482;49.154;8.254;2023-06-14T11:17:21;6.23;;;3.13;;
4933;SDS011;2482;49.154;8.254;2023-06-14T11:19:48;4.13;;;3.20;;
4933;SDS011;2482;49.154;8.254;2023-06-14T11:22:15;7.23;;;3.00;;
4933;SDS011;2482;49.154;8.254;2023-06-14T11:24:43;5.00;;;2.80;;
4933;SDS011;2482;49.154;8.254;2023-06-14T11:27:12;5.23;;;2.77;;
4933;SDS011;2482;49.154;8.254;2023-06-14T11:29:47;5.67;;;3.07;;
4933;SDS011;2482;49.154;8.254;2023-06-14T11:32:17;5.67;;;3.00;;
4933;SDS011;2482;49.154;8.254;2023-06-14T11:34:45;3.50;;;2.70;;
4933;SDS011;2482;49.154;8.254;2023-06-14T11:37:13;5.67;;;3.13;;
4933;SDS011;2482;49.154;8.254;2023-06-14T11:39:43;3.67;;;2.90;;
4933;SDS011;2482;49.154;8.254;2023-06-14T11:42:17;7.10;;;2.90;;
4933;SDS011;2482;49.154;8.254;2023-06-14T11:44:49;7.53;;;3.07;;
4933;SDS011;2482;49.154;8.254;2023-06-14T11:47:16;2.97;;;2.67;;
4933;SDS011;2482;49.154;8.254;2023-06-14T11:49:43;13.30;;;2.83;;
4933;SDS011;2482;49.154;8.254;2023-06-14T11:52:10;4.50;;;3.00;;
4933;SDS011;2482;49.154;8.254;2023-06-14T11:54:37;3.73;;;2.67;;
4933;SDS011;2482;49.154;8.254;2023-06-14T11:57:07;4.00;;;3.13;;
4933;SDS011;2482;49.154;8.254;2023-06-14T11:59:38;4.70;;;3.23;;
4933;SDS011;2482;49.154;8.254;2023-06-14T12:02:06;16.37;;;3.00;;
4933;SDS011;2482;49.154;8.254;2023-06-14T12:04:34;3.60;;;2.63;;
4933;SDS011;2482;49.154;8.254;2023-06-14T12:07:11;4.00;;;3.33;;
4933;SDS011;2482;49.154;8.254;2023-06-14T12:12:23;3.13;;;2.80;;
4933;SDS011;2482;49.154;8.254;2023-06-14T12:14:55;4.60;;;2.60;;
4933;SDS011;2482;49.154;8.254;2023-06-14T12:17:22;3.03;;;2.73;;
4933;SDS011;2482;49.154;8.254;2023-06-14T12:19:50;6.80;;;2.80;;
4933;SDS011;2482;49.154;8.254;2023-06-14T12:22:17;4.60;;;2.33;;
4933;SDS011;2482;49.154;8.254;2023-06-14T12:24:44;4.40;;;3.23;;
4933;SDS011;2482;49.154;8.254;2023-06-14T12:27:12;3.10;;;2.80;;
4933;SDS011;2482;49.154;8.254;2023-06-14T12:29:42;3.23;;;2.93;;
4933;SDS011;2482;49.154;8.254;2023-06-14T12:32:12;4.00;;;2.80;;
4933;SDS011;2482;49.154;8.254;2023-06-14T12:34:39;4.73;;;3.40;;
4933;SDS011;2482;49.154;8.254;2023-06-14T12:37:06;3.33;;;3.03;;
4933;SDS011;2482;49.154;8.254;2023-06-14T12:39:33;9.90;;;2.97;;
4933;SDS011;2482;49.154;8.254;2023-06-14T12:42:00;4.00;;;3.07;;
4933;SDS011;2482;49.154;8.254;2023-06-14T12:44:30;3.10;;;2.80;;
4933;SDS011;2482;49.154;8.254;2023-06-14T12:46:59;3.87;;;2.93;;
4933;SDS011;2482;49.154;8.254;2023-06-14T12:49:27;4.80;;;3.03;;
4933;SDS011;2482;49.154;8.254;2023-06-14T12:51:54;6.90;;;3.17;;
4933;SDS011;2482;49.154;8.254;2023-06-14T12:54:20;3.13;;;2.83;;
4933;SDS011;2482;49.154;8.254;2023-06-14T12:57:06;4.23;;;2.90;;
4933;SDS011;2482;49.154;8.254;2023-06-14T12:59:33;9.90;;;2.97;;
4933;SDS011;2482;49.154;8.254;2023-06-14T13:04:57;4.10;;;3.00;;
4933;SDS011;2482;49.154;8.254;2023-06-14T13:07:24;5.33;;;2.87;;
4933;SDS011;2482;49.154;8.254;2023-06-14T13:09:52;10.10;;;3.80;;
4933;SDS011;2482;49.154;8.254;2023-06-14T13:12:19;4.73;;;3.00;;
4933;SDS011;2482;49.154;8.254;2023-06-14T13:14:46;4.13;;;2.90;;
4933;SDS011;2482;49.154;8.254;2023-06-14T13:17:13;4.00;;;3.10;;
4933;SDS011;2482;49.154;8.254;2023-06-14T13:19:40;3.00;;;2.80;;
4933;SDS011;2482;49.154;8.254;2023-06-14T13:22:08;4.27;;;2.83;;
4933;SDS011;2482;49.154;8.254;2023-06-14T13:24:36;3.50;;;2.40;;
4933;SDS011;2482;49.154;8.254;2023-06-14T13:27:03;5.40;;;2.90;;
4933;SDS011;2482;49.154;8.254;2023-06-14T13:29:31;3.17;;;2.97;;
4933;SDS011;2482;49.154;8.254;2023-06-14T13:31:59;7.53;;;2.67;;
4933;SDS011;2482;49.154;8.254;2023-06-14T13:34:27;3.13;;;2.83;;
4933;SDS011;2482;49.154;8.254;2023-06-14T13:36:54;5.00;;;2.60;;
4933;SDS011;2482;49.154;8.254;2023-06-14T13:39:23;5.03;;;2.90;;
4933;SDS011;2482;49.154;8.254;2023-06-14T13:41:50;3.70;;;2.83;;
4933;SDS011;2482;49.154;8.254;2023-06-14T13:44:17;4.97;;;2.63;;
4933;SDS011;2482;49.154;8.254;2023-06-14T13:46:47;3.80;;;2.73;;
4933;SDS011;2482;49.154;8.254;2023-06-14T13:49:14;6.03;;;3.00;;
4933;SDS011;2482;49.154;8.254;2023-06-14T13:51:41;5.70;;;3.30;;
4933;SDS011;2482;49.154;8.254;2023-06-14T13:54:08;6.80;;;2.93;;
4933;SDS011;2482;49.154;8.254;2023-06-14T13:56:35;3.20;;;2.90;;
4933;SDS011;2482;49.154;8.254;2023-06-14T13:59:02;4.73;;;3.20;;
4933;SDS011;2482;49.154;8.254;2023-06-14T14:01:29;3.93;;;2.93;;
4933;SDS011;2482;49.154;8.254;2023-06-14T14:03:56;4.80;;;3.10;;
4933;SDS011;2482;49.154;8.254;2023-06-14T14:06:25;8.20;;;3.00;;
4933;SDS011;2482;49.154;8.254;2023-06-14T14:08:52;2.97;;;2.77;;
4933;SDS011;2482;49.154;8.254;2023-06-14T14:11:20;3.20;;;3.00;;
4933;SDS011;2482;49.154;8.254;2023-06-14T14:13:47;6.33;;;2.90;;
4933;SDS011;2482;49.154;8.254;2023-06-14T14:16:14;3.33;;;2.57;;
4933;SDS011;2482;49.154;8.254;2023-06-14T14:18:41;6.00;;;3.07;;
4933;SDS011;2482;49.154;8.254;2023-06-14T14:21:09;3.67;;;3.13;;
4933;SDS011;2482;49.154;8.254;2023-06-14T14:23:36;4.10;;;2.90;;
4933;SDS011;2482;49.154;8.254;2023-06-14T14:26:06;3.10;;;2.67;;
4933;SDS011;2482;49.154;8.254;2023-06-14T14:28:33;3.47;;;3.10;;
4933;SDS011;2482;49.154;8.254;2023-06-14T14:31:00;3.77;;;3.37;;
4933;SDS011;2482;49.154;8.254;2023-06-14T14:33:28;6.80;;;2.77;;
4933;SDS011;2482;49.154;8.254;2023-06-14T14:35:55;3.40;;;2.97;;
4933;SDS011;2482;49.154;8.254;2023-06-14T14:38:22;4.90;;;3.00;;
4933;SDS011;2482;49.154;8.254;2023-06-14T14:40:49;4.73;;;3.27;;
4933;SDS011;2482;49.154;8.254;2023-06-14T14:43:16;10.03;;;3.20;;
4933;SDS011;2482;49.154;8.254;2023-06-14T14:45:43;5.00;;;3.20;;
4933;SDS011;2482;49.154;8.254;2023-06-14T14:48:10;4.00;;;2.93;;
4933;SDS011;2482;49.154;8.254;2023-06-14T14:50:37;5.63;;;2.77;;
4933;SDS011;2482;49.154;8.254;2023-06-14T14:53:05;3.57;;;3.23;;
4933;SDS011;2482;49.154;8.254;2023-06-14T14:55:32;3.00;;;2.70;;
4933;SDS011;2482;49.154;8.254;2023-06-14T14:58:03;5.33;;;3.00;;
4933;SDS011;2482;49.154;8.254;2023-06-14T15:00:32;4.03;;;2.73;;
4933;SDS011;2482;49.154;8.254;2023-06-14T15:02:59;3.30;;;3.00;;
4933;SDS011;2482;49.154;8.254;2023-06-14T15:05:26;5.63;;;3.10;;
4933;SDS011;2482;49.154;8.254;2023-06-14T15:07:54;3.20;;;2.63;;
4933;SDS011;2482;49.154;8.254;2023-06-14T15:10:21;3.27;;;2.60;;
4933;SDS011;2482;49.154;8.254;2023-06-14T15:12:48;4.70;;;2.70;;
4933;SDS011;2482;49.154;8.254;2023-06-14T15:15:15;4.17;;;3.10;;
4933;SDS011;2482;49.154;8.254;2023-06-14T15:17:42;2.87;;;2.60;;
4933;SDS011;2482;49.154;8.254;2023-06-14T15:20:09;3.50;;;2.57;;
4933;SDS011;2482;49.154;8.254;2023-06-14T15:22:40;3.50;;;3.20;;
4933;SDS011;2482;49.154;8.254;2023-06-14T15:25:07;6.47;;;3.47;;
4933;SDS011;2482;49.154;8.254;2023-06-14T15:27:35;4.87;;;3.30;;
4933;SDS011;2482;49.154;8.254;2023-06-14T15:30:02;2.87;;;2.60;;
4933;SDS011;2482;49.154;8.254;2023-06-14T15:32:30;3.37;;;3.07;;
4933;SDS011;2482;49.154;8.254;2023-06-14T15:34:57;4.70;;;2.93;;
4933;SDS011;2482;49.154;8.254;2023-06-14T15:37:24;4.20;;;3.17;;
4933;SDS011;2482;49.154;8.254;2023-06-14T15:39:51;3.30;;;3.00;;